sensor_id;sensor_type;location;lat;lon;timestamp;pressure;altitude;pressure_sealevel;temperature;humidity
50484;BME280;36409;52.168;20.878;2024-01-07T00:00:18;100610.03;;;-6.11;72.92
50484;BME280;36409;52.168;20.878;2024-01-07T00:03:08;100604.80;;;-6.14;72.67
50484;BME280;36409;52.168;20.878;2024-01-07T00:05:38;100605.48;;;-6.17;72.42
50484;BME280;36409;52.168;20.878;2024-01-07T00:08:09;100605.41;;;-6.18;72.81
50484;BME280;36409;52.168;20.878;2024-01-07T00:10:38;100604.51;;;-6.19;72.50
50484;BME280;36409;52.168;20.878;2024-01-07T00:13:07;100606.19;;;-6.19;73.14
50484;BME280;36409;52.168;20.878;2024-01-07T00:15:38;100606.11;;;-6.21;72.94
50484;BME280;36409;52.168;20.878;2024-01-07T00:18:07;100606.11;;;-6.21;72.80
50484;BME280;36409;52.168;20.878;2024-01-07T00:20:39;100612.77;;;-6.23;72.88
50484;BME280;36409;52.168;20.878;2024-01-07T00:23:11;100608.47;;;-6.24;72.52
50484;BME280;36409;52.168;20.878;2024-01-07T00:25:41;100613.48;;;-6.26;72.61
50484;BME280;36409;52.168;20.878;2024-01-07T00:28:11;100611.61;;;-6.28;72.84
50484;BME280;36409;52.168;20.878;2024-01-07T00:30:41;100614.94;;;-6.29;73.27
50484;BME280;36409;52.168;20.878;2024-01-07T00:33:11;100608.91;;;-6.31;73.18
50484;BME280;36409;52.168;20.878;2024-01-07T00:35:41;100618.97;;;-6.33;72.65
50484;BME280;36409;52.168;20.878;2024-01-07T00:38:10;100623.00;;;-6.37;72.94
50484;BME280;36409;52.168;20.878;2024-01-07T00:40:40;100628.01;;;-6.38;72.81
50484;BME280;36409;52.168;20.878;2024-01-07T00:43:11;100624.50;;;-6.40;73.34
50484;BME280;36409;52.168;20.878;2024-01-07T00:45:46;100633.69;;;-6.42;73.02
50484;BME280;36409;52.168;20.878;2024-01-07T00:48:16;100634.47;;;-6.43;72.74
50484;BME280;36409;52.168;20.878;2024-01-07T00:50:46;100630.17;;;-6.44;73.15
50484;BME280;36409;52.168;20.878;2024-01-07T00:53:17;100637.72;;;-6.46;73.21
50484;BME280;36409;52.168;20.878;2024-01-07T00:55:48;100635.09;;;-6.47;73.27
50484;BME280;36409;52.168;20.878;2024-01-07T00:58:20;100629.91;;;-6.49;72.91
50484;BME280;36409;52.168;20.878;2024-01-07T01:00:50;100634.02;;;-6.51;72.95
50484;BME280;36409;52.168;20.878;2024-01-07T01:03:19;100640.70;;;-6.53;73.19
50484;BME280;36409;52.168;20.878;2024-01-07T01:05:49;100641.36;;;-6.56;73.27
50484;BME280;36409;52.168;20.878;2024-01-07T01:08:18;100637.06;;;-6.57;73.22
50484;BME280;36409;52.168;20.878;2024-01-07T01:10:47;100648.02;;;-6.58;72.99
50484;BME280;36409;52.168;20.878;2024-01-07T01:13:19;100637.85;;;-6.58;73.47
50484;BME280;36409;52.168;20.878;2024-01-07T01:15:49;100643.75;;;-6.59;73.11
50484;BME280;36409;52.168;20.878;2024-01-07T01:18:18;100646.29;;;-6.59;73.42
50484;BME280;36409;52.168;20.878;2024-01-07T01:20:49;100643.75;;;-6.59;73.27
50484;BME280;36409;52.168;20.878;2024-01-07T01:23:18;100645.39;;;-6.59;72.94
50484;BME280;36409;52.168;20.878;2024-01-07T01:25:47;100653.02;;;-6.59;72.87
50484;BME280;36409;52.168;20.878;2024-01-07T01:28:19;100645.39;;;-6.59;73.41
50484;BME280;36409;52.168;20.878;2024-01-07T01:30:49;100649.69;;;-6.58;73.34
50484;BME280;36409;52.168;20.878;2024-01-07T01:33:18;100644.61;;;-6.58;73.53
50484;BME280;36409;52.168;20.878;2024-01-07T01:35:48;100648.13;;;-6.56;73.37
50484;BME280;36409;52.168;20.878;2024-01-07T01:38:18;100643.91;;;-6.56;73.52
50484;BME280;36409;52.168;20.878;2024-01-07T01:40:53;100643.05;;;-6.56;73.68
50484;BME280;36409;52.168;20.878;2024-01-07T01:43:27;100648.91;;;-6.57;73.10
50484;BME280;36409;52.168;20.878;2024-01-07T01:45:57;100648.13;;;-6.56;73.26
50484;BME280;36409;52.168;20.878;2024-01-07T01:48:26;100641.29;;;-6.57;73.51
50484;BME280;36409;52.168;20.878;2024-01-07T01:50:57;100640.50;;;-6.56;73.34
50484;BME280;36409;52.168;20.878;2024-01-07T01:53:27;100643.05;;;-6.56;73.58
50484;BME280;36409;52.168;20.878;2024-01-07T01:55:58;100638.75;;;-6.57;73.75
50484;BME280;36409;52.168;20.878;2024-01-07T01:58:31;100639.53;;;-6.58;73.47
50484;BME280;36409;52.168;20.878;2024-01-07T02:01:04;100632.69;;;-6.59;73.76
50484;BME280;36409;52.168;20.878;2024-01-07T02:03:35;100631.91;;;-6.58;73.74
50484;BME280;36409;52.168;20.878;2024-01-07T02:06:05;100634.45;;;-6.58;73.60
50484;BME280;36409;52.168;20.878;2024-01-07T02:08:36;100629.38;;;-6.58;73.57
50484;BME280;36409;52.168;20.878;2024-01-07T02:11:19;100632.77;;;-6.58;73.22
50484;BME280;36409;52.168;20.878;2024-01-07T02:13:49;100634.45;;;-6.58;73.63
50484;BME280;36409;52.168;20.878;2024-01-07T02:16:19;100629.38;;;-6.58;73.73
50484;BME280;36409;52.168;20.878;2024-01-07T02:18:48;100630.23;;;-6.58;73.76
50484;BME280;36409;52.168;20.878;2024-01-07T02:21:18;100628.59;;;-6.57;73.75
50484;BME280;36409;52.168;20.878;2024-01-07T02:23:47;100626.91;;;-6.57;74.00
50484;BME280;36409;52.168;20.878;2024-01-07T02:26:16;100632.97;;;-6.55;73.75
50484;BME280;36409;52.168;20.878;2024-01-07T02:28:45;100631.39;;;-6.53;73.40
50484;BME280;36409;52.168;20.878;2024-01-07T02:31:15;100633.94;;;-6.53;73.39
50484;BME280;36409;52.168;20.878;2024-01-07T02:33:45;100629.83;;;-6.50;73.82
50484;BME280;36409;52.168;20.878;2024-01-07T02:36:18;100627.36;;;-6.49;73.57
50484;BME280;36409;52.168;20.878;2024-01-07T02:38:48;100631.74;;;-6.46;73.73
50484;BME280;36409;52.168;20.878;2024-01-07T02:41:17;100624.12;;;-6.46;74.00
50484;BME280;36409;52.168;20.878;2024-01-07T02:43:46;100624.12;;;-6.46;73.46
50484;BME280;36409;52.168;20.878;2024-01-07T02:46:16;100624.83;;;-6.49;73.65
50484;BME280;36409;52.168;20.878;2024-01-07T02:48:45;100625.61;;;-6.50;73.86
50484;BME280;36409;52.168;20.878;2024-01-07T02:51:14;100629.12;;;-6.48;73.58
50484;BME280;36409;52.168;20.878;2024-01-07T02:53:44;100626.58;;;-6.48;73.68
50484;BME280;36409;52.168;20.878;2024-01-07T02:56:13;100630.69;;;-6.50;73.94
50484;BME280;36409;52.168;20.878;2024-01-07T02:58:43;100628.15;;;-6.50;73.53
50484;BME280;36409;52.168;20.878;2024-01-07T03:01:12;100627.28;;;-6.50;74.04
50484;BME280;36409;52.168;20.878;2024-01-07T03:03:41;100628.07;;;-6.52;73.99
50484;BME280;36409;52.168;20.878;2024-01-07T03:06:10;100631.20;;;-6.56;73.44
50484;BME280;36409;52.168;20.878;2024-01-07T03:08:39;100630.08;;;-6.61;74.00
50484;BME280;36409;52.168;20.878;2024-01-07T03:11:09;100636.64;;;-6.64;73.52
50484;BME280;36409;52.168;20.878;2024-01-07T03:13:39;100632.86;;;-6.71;73.33
50484;BME280;36409;52.168;20.878;2024-01-07T03:16:08;100631.88;;;-6.73;73.37
50484;BME280;36409;52.168;20.878;2024-01-07T03:18:47;100637.66;;;-6.76;73.35
50484;BME280;36409;52.168;20.878;2024-01-07T03:21:20;100632.39;;;-6.79;73.42
50484;BME280;36409;52.168;20.878;2024-01-07T03:23:51;100631.22;;;-6.84;73.81
50484;BME280;36409;52.168;20.878;2024-01-07T03:26:20;100638.56;;;-6.89;73.25
50484;BME280;36409;52.168;20.878;2024-01-07T03:28:49;100635.67;;;-6.95;73.36
50484;BME280;36409;52.168;20.878;2024-01-07T03:31:19;100642.39;;;-6.95;73.65
50484;BME280;36409;52.168;20.878;2024-01-07T03:33:52;100644.77;;;-6.99;74.00
50484;BME280;36409;52.168;20.878;2024-01-07T03:36:21;100637.04;;;-7.00;73.46
50484;BME280;36409;52.168;20.878;2024-01-07T03:38:52;100636.95;;;-7.02;73.36
50484;BME280;36409;52.168;20.878;2024-01-07T03:41:22;100642.03;;;-7.02;73.53
50484;BME280;36409;52.168;20.878;2024-01-07T03:43:54;100637.66;;;-7.04;73.72
50484;BME280;36409;52.168;20.878;2024-01-07T03:46:23;100635.90;;;-7.05;73.53
50484;BME280;36409;52.168;20.878;2024-01-07T03:48:53;100646.91;;;-7.05;74.10
50484;BME280;36409;52.168;20.878;2024-01-07T03:51:22;100653.47;;;-7.08;73.96
50484;BME280;36409;52.168;20.878;2024-01-07T03:53:52;100646.55;;;-7.11;73.50
50484;BME280;36409;52.168;20.878;2024-01-07T03:56:24;100649.95;;;-7.10;73.55
50484;BME280;36409;52.168;20.878;2024-01-07T03:58:53;100654.05;;;-7.12;73.71
50484;BME280;36409;52.168;20.878;2024-01-07T04:01:22;100655.61;;;-7.15;73.45
50484;BME280;36409;52.168;20.878;2024-01-07T04:03:52;100649.47;;;-7.18;73.58
50484;BME280;36409;52.168;20.878;2024-01-07T04:06:21;100653.69;;;-7.19;73.54
50484;BME280;36409;52.168;20.878;2024-01-07T04:08:51;100653.57;;;-7.20;73.53
50484;BME280;36409;52.168;20.878;2024-01-07T04:11:20;100649.97;;;-7.24;73.48
50484;BME280;36409;52.168;20.878;2024-01-07T04:13:49;100649.97;;;-7.24;74.21
50484;BME280;36409;52.168;20.878;2024-01-07T04:16:19;100648.91;;;-7.27;74.11
50484;BME280;36409;52.168;20.878;2024-01-07T04:18:48;100653.00;;;-7.30;74.07
50484;BME280;36409;52.168;20.878;2024-01-07T04:21:22;100651.16;;;-7.32;73.55
50484;BME280;36409;52.168;20.878;2024-01-07T04:23:51;100647.56;;;-7.36;73.57
50484;BME280;36409;52.168;20.878;2024-01-07T04:26:20;100657.59;;;-7.37;74.21
50484;BME280;36409;52.168;20.878;2024-01-07T04:28:51;100653.41;;;-7.37;74.15
50484;BME280;36409;52.168;20.878;2024-01-07T04:31:20;100654.20;;;-7.38;73.61
50484;BME280;36409;52.168;20.878;2024-01-07T04:33:49;100655.95;;;-7.37;74.31
50484;BME280;36409;52.168;20.878;2024-01-07T04:36:19;100651.66;;;-7.38;74.32
50484;BME280;36409;52.168;20.878;2024-01-07T04:38:48;100656.65;;;-7.39;73.68
50484;BME280;36409;52.168;20.878;2024-01-07T04:41:17;100655.88;;;-7.38;74.23
50484;BME280;36409;52.168;20.878;2024-01-07T04:43:46;100654.97;;;-7.39;73.71
50484;BME280;36409;52.168;20.878;2024-01-07T04:46:20;100661.72;;;-7.39;73.52
50484;BME280;36409;52.168;20.878;2024-01-07T04:48:53;100661.60;;;-7.41;74.30
50484;BME280;36409;52.168;20.878;2024-01-07T04:51:22;100657.31;;;-7.42;74.35
50484;BME280;36409;52.168;20.878;2024-01-07T04:53:52;100657.31;;;-7.42;74.30
50484;BME280;36409;52.168;20.878;2024-01-07T04:56:21;100661.60;;;-7.41;73.88
50484;BME280;36409;52.168;20.878;2024-01-07T04:58:53;100660.05;;;-7.39;74.39
50484;BME280;36409;52.168;20.878;2024-01-07T05:01:22;100666.09;;;-7.37;73.84
50484;BME280;36409;52.168;20.878;2024-01-07T05:03:52;100675.47;;;-7.36;73.84
50484;BME280;36409;52.168;20.878;2024-01-07T05:06:21;100667.66;;;-7.39;73.81
50484;BME280;36409;52.168;20.878;2024-01-07T05:08:51;100663.48;;;-7.38;74.36
50484;BME280;36409;52.168;20.878;2024-01-07T05:11:23;100669.33;;;-7.39;74.01
50484;BME280;36409;52.168;20.878;2024-01-07T05:13:53;100661.52;;;-7.42;73.87
50484;BME280;36409;52.168;20.878;2024-01-07T05:16:23;100671.67;;;-7.42;74.24
50484;BME280;36409;52.168;20.878;2024-01-07T05:18:53;100674.28;;;-7.41;73.87
50484;BME280;36409;52.168;20.878;2024-01-07T05:21:22;100678.58;;;-7.40;73.86
50484;BME280;36409;52.168;20.878;2024-01-07T05:23:57;100678.58;;;-7.40;74.50
50484;BME280;36409;52.168;20.878;2024-01-07T05:26:26;100685.21;;;-7.42;74.33
50484;BME280;36409;52.168;20.878;2024-01-07T05:28:59;100681.73;;;-7.44;73.76
50484;BME280;36409;52.168;20.878;2024-01-07T05:31:28;100683.28;;;-7.46;73.75
50484;BME280;36409;52.168;20.878;2024-01-07T05:33:58;100686.59;;;-7.47;74.09
50484;BME280;36409;52.168;20.878;2024-01-07T05:36:27;100683.97;;;-7.49;73.97
50484;BME280;36409;52.168;20.878;2024-01-07T05:38:59;100685.62;;;-7.49;73.75
50484;BME280;36409;52.168;20.878;2024-01-07T05:41:28;100691.37;;;-7.52;73.76
50484;BME280;36409;52.168;20.878;2024-01-07T05:43:58;100690.40;;;-7.54;74.30
50484;BME280;36409;52.168;20.878;2024-01-07T05:46:27;100688.84;;;-7.52;73.71
50484;BME280;36409;52.168;20.878;2024-01-07T05:48:57;100694.00;;;-7.50;73.93
50484;BME280;36409;52.168;20.878;2024-01-07T05:51:26;100694.89;;;-7.50;74.23
50484;BME280;36409;52.168;20.878;2024-01-07T05:53:55;100693.22;;;-7.49;74.34
50484;BME280;36409;52.168;20.878;2024-01-07T05:56:25;100690.60;;;-7.51;74.46
50484;BME280;36409;52.168;20.878;2024-01-07T05:58:54;100687.78;;;-7.55;73.68
50484;BME280;36409;52.168;20.878;2024-01-07T06:01:23;100686.67;;;-7.59;73.93
50484;BME280;36409;52.168;20.878;2024-01-07T06:03:54;100684.75;;;-7.63;73.67
50484;BME280;36409;52.168;20.878;2024-01-07T06:06:24;100687.16;;;-7.65;74.51
50484;BME280;36409;52.168;20.878;2024-01-07T06:08:55;100694.89;;;-7.63;74.51
50484;BME280;36409;52.168;20.878;2024-01-07T06:11:24;100685.52;;;-7.64;74.51
50484;BME280;36409;52.168;20.878;2024-01-07T06:13:54;100693.98;;;-7.64;73.89
50484;BME280;36409;52.168;20.878;2024-01-07T06:16:23;100686.30;;;-7.65;74.24
50484;BME280;36409;52.168;20.878;2024-01-07T06:18:53;100687.97;;;-7.66;74.10
50484;BME280;36409;52.168;20.878;2024-01-07T06:21:22;100691.37;;;-7.65;73.85
50484;BME280;36409;52.168;20.878;2024-01-07T06:23:53;100691.28;;;-7.67;74.00
50484;BME280;36409;52.168;20.878;2024-01-07T06:26:22;100693.70;;;-7.68;74.00
50484;BME280;36409;52.168;20.878;2024-01-07T06:28:52;100701.30;;;-7.68;73.83
50484;BME280;36409;52.168;20.878;2024-01-07T06:31:22;100709.69;;;-7.69;73.83
50484;BME280;36409;52.168;20.878;2024-01-07T06:33:52;100715.53;;;-7.70;74.31
50484;BME280;36409;52.168;20.878;2024-01-07T06:36:21;100717.12;;;-7.72;74.01
50484;BME280;36409;52.168;20.878;2024-01-07T06:38:51;100713.00;;;-7.70;74.50
50484;BME280;36409;52.168;20.878;2024-01-07T06:41:21;100719.66;;;-7.72;73.83
50484;BME280;36409;52.168;20.878;2024-01-07T06:43:50;100725.59;;;-7.72;74.53
50484;BME280;36409;52.168;20.878;2024-01-07T06:46:22;100725.59;;;-7.72;73.82
50484;BME280;36409;52.168;20.878;2024-01-07T06:48:52;100728.81;;;-7.74;73.84
50484;BME280;36409;52.168;20.878;2024-01-07T06:51:22;100733.88;;;-7.74;73.87
50484;BME280;36409;52.168;20.878;2024-01-07T06:53:51;100733.11;;;-7.73;73.98
50484;BME280;36409;52.168;20.878;2024-01-07T06:56:20;100732.33;;;-7.72;73.91
50484;BME280;36409;52.168;20.878;2024-01-07T06:58:50;100735.73;;;-7.72;74.29
50484;BME280;36409;52.168;20.878;2024-01-07T07:01:21;100742.47;;;-7.72;73.94
50484;BME280;36409;52.168;20.878;2024-01-07T07:03:52;100738.27;;;-7.72;74.48
50484;BME280;36409;52.168;20.878;2024-01-07T07:06:21;100740.89;;;-7.70;74.09
50484;BME280;36409;52.168;20.878;2024-01-07T07:08:50;100746.86;;;-7.70;74.65
50484;BME280;36409;52.168;20.878;2024-01-07T07:11:21;100745.30;;;-7.68;74.66
50484;BME280;36409;52.168;20.878;2024-01-07T07:13:50;100748.02;;;-7.65;74.03
50484;BME280;36409;52.168;20.878;2024-01-07T07:16:19;100746.29;;;-7.66;74.58
50484;BME280;36409;52.168;20.878;2024-01-07T07:18:48;100750.67;;;-7.63;74.69
50484;BME280;36409;52.168;20.878;2024-01-07T07:21:17;100752.44;;;-7.62;74.70
50484;BME280;36409;52.168;20.878;2024-01-07T07:23:47;100755.27;;;-7.57;74.17
50484;BME280;36409;52.168;20.878;2024-01-07T07:26:16;100748.44;;;-7.58;74.62
50484;BME280;36409;52.168;20.878;2024-01-07T07:28:47;100753.59;;;-7.57;74.03
50484;BME280;36409;52.168;20.878;2024-01-07T07:31:16;100754.37;;;-7.58;74.38
50484;BME280;36409;52.168;20.878;2024-01-07T07:33:45;100753.59;;;-7.57;74.64
50484;BME280;36409;52.168;20.878;2024-01-07T07:36:15;100757.20;;;-7.53;74.13
50484;BME280;36409;52.168;20.878;2024-01-07T07:38:44;100757.41;;;-7.50;74.15
50484;BME280;36409;52.168;20.878;2024-01-07T07:41:13;100762.69;;;-7.47;74.68
50484;BME280;36409;52.168;20.878;2024-01-07T07:43:42;100762.89;;;-7.44;74.61
50484;BME280;36409;52.168;20.878;2024-01-07T07:46:15;100756.23;;;-7.42;74.67
50484;BME280;36409;52.168;20.878;2024-01-07T07:48:44;100758.29;;;-7.36;74.63
50484;BME280;36409;52.168;20.878;2024-01-07T07:51:15;100763.48;;;-7.35;74.17
50484;BME280;36409;52.168;20.878;2024-01-07T07:53:45;100763.66;;;-7.32;74.76
50484;BME280;36409;52.168;20.878;2024-01-07T07:56:15;100766.69;;;-7.24;74.71
50484;BME280;36409;52.168;20.878;2024-01-07T07:58:44;100770.50;;;-7.17;74.69
50484;BME280;36409;52.168;20.878;2024-01-07T08:01:13;100770.62;;;-7.16;74.57
50484;BME280;36409;52.168;20.878;2024-01-07T08:03:43;100773.33;;;-7.12;74.65
50484;BME280;36409;52.168;20.878;2024-01-07T08:06:13;100770.02;;;-7.11;74.64
50484;BME280;36409;52.168;20.878;2024-01-07T08:08:44;100771.69;;;-7.12;74.08
50484;BME280;36409;52.168;20.878;2024-01-07T08:11:16;100779.47;;;-7.09;74.77
50484;BME280;36409;52.168;20.878;2024-01-07T08:13:46;100780.45;;;-7.07;74.60
50484;BME280;36409;52.168;20.878;2024-01-07T08:16:16;100783.20;;;-7.04;74.07
50484;BME280;36409;52.168;20.878;2024-01-07T08:18:47;100784.06;;;-7.03;74.61
50484;BME280;36409;52.168;20.878;2024-01-07T08:21:16;100788.27;;;-7.04;74.64
50484;BME280;36409;52.168;20.878;2024-01-07T08:23:45;100788.48;;;-7.01;74.39
50484;BME280;36409;52.168;20.878;2024-01-07T08:26:19;100790.61;;;-6.93;74.14
50484;BME280;36409;52.168;20.878;2024-01-07T08:28:49;100788.47;;;-6.87;74.40
50484;BME280;36409;52.168;20.878;2024-01-07T08:31:18;100794.62;;;-6.84;74.30
50484;BME280;36409;52.168;20.878;2024-01-07T08:33:51;100790.69;;;-6.78;74.08
50484;BME280;36409;52.168;20.878;2024-01-07T08:36:21;100804.45;;;-6.75;74.11
50484;BME280;36409;52.168;20.878;2024-01-07T08:38:51;100798.79;;;-6.71;74.20
50484;BME280;36409;52.168;20.878;2024-01-07T08:41:26;100799.19;;;-6.64;73.95
50484;BME280;36409;52.168;20.878;2024-01-07T08:43:55;100800.14;;;-6.62;74.32
50484;BME280;36409;52.168;20.878;2024-01-07T08:46:25;100794.47;;;-6.58;74.29
50484;BME280;36409;52.168;20.878;2024-01-07T08:48:54;100792.41;;;-6.50;73.96
50484;BME280;36409;52.168;20.878;2024-01-07T08:51:24;100796.20;;;-6.44;73.98
50484;BME280;36409;52.168;20.878;2024-01-07T08:53:53;100799.03;;;-6.39;74.07
50484;BME280;36409;52.168;20.878;2024-01-07T08:56:22;100808.49;;;-6.37;74.25
50484;BME280;36409;52.168;20.878;2024-01-07T08:58:54;100802.71;;;-6.34;73.94
50484;BME280;36409;52.168;20.878;2024-01-07T09:01:24;100803.61;;;-6.33;74.31
50484;BME280;36409;52.168;20.878;2024-01-07T09:03:53;100804.59;;;-6.31;73.75
50484;BME280;36409;52.168;20.878;2024-01-07T09:06:22;100809.39;;;-6.36;74.21
50484;BME280;36409;52.168;20.878;2024-01-07T09:08:54;100806.84;;;-6.36;74.26
50484;BME280;36409;52.168;20.878;2024-01-07T09:11:26;100805.87;;;-6.38;74.22
50484;BME280;36409;52.168;20.878;2024-01-07T09:14:05;100806.73;;;-6.38;74.12
50484;BME280;36409;52.168;20.878;2024-01-07T09:16:42;100818.45;;;-6.40;73.73
50484;BME280;36409;52.168;20.878;2024-01-07T09:19:12;100814.97;;;-6.42;74.05
50484;BME280;36409;52.168;20.878;2024-01-07T09:21:43;100824.16;;;-6.44;73.74
50484;BME280;36409;52.168;20.878;2024-01-07T09:24:13;100820.05;;;-6.42;74.02
50484;BME280;36409;52.168;20.878;2024-01-07T09:26:43;100818.18;;;-6.44;73.52
50484;BME280;36409;52.168;20.878;2024-01-07T09:29:15;100819.86;;;-6.45;73.92
50484;BME280;36409;52.168;20.878;2024-01-07T09:31:56;100817.12;;;-6.48;73.75
50484;BME280;36409;52.168;20.878;2024-01-07T09:34:25;100804.33;;;-6.49;73.76
50484;BME280;36409;52.168;20.878;2024-01-07T09:36:55;100801.30;;;-6.44;73.91
50484;BME280;36409;52.168;20.878;2024-01-07T09:39:24;100802.16;;;-6.43;73.79
50484;BME280;36409;52.168;20.878;2024-01-07T09:41:57;100800.59;;;-6.41;73.97
50484;BME280;36409;52.168;20.878;2024-01-07T09:44:32;100799.89;;;-6.39;73.80
50484;BME280;36409;52.168;20.878;2024-01-07T09:47:05;100808.30;;;-6.40;73.67
50484;BME280;36409;52.168;20.878;2024-01-07T09:49:36;100802.07;;;-6.45;73.63
50484;BME280;36409;52.168;20.878;2024-01-07T09:52:07;100792.69;;;-6.46;73.78
50484;BME280;36409;52.168;20.878;2024-01-07T09:54:37;100798.64;;;-6.45;73.49
50484;BME280;36409;52.168;20.878;2024-01-07T09:57:08;100791.29;;;-6.41;73.71
50484;BME280;36409;52.168;20.878;2024-01-07T09:59:38;100795.09;;;-6.34;73.48
50484;BME280;36409;52.168;20.878;2024-01-07T10:02:08;100804.39;;;-6.34;73.51
50484;BME280;36409;52.168;20.878;2024-01-07T10:04:39;100801.06;;;-6.33;73.36
50484;BME280;36409;52.168;20.878;2024-01-07T10:07:09;100804.39;;;-6.34;73.78
50484;BME280;36409;52.168;20.878;2024-01-07T10:09:41;100804.31;;;-6.36;73.03
50484;BME280;36409;52.168;20.878;2024-01-07T10:12:12;100796.69;;;-6.36;73.16
50484;BME280;36409;52.168;20.878;2024-01-07T10:14:42;100799.11;;;-6.38;73.15
50484;BME280;36409;52.168;20.878;2024-01-07T10:17:17;100800.95;;;-6.35;73.35
50484;BME280;36409;52.168;20.878;2024-01-07T10:19:47;100790.98;;;-6.32;73.48
50484;BME280;36409;52.168;20.878;2024-01-07T10:22:16;100795.28;;;-6.31;73.74
50484;BME280;36409;52.168;20.878;2024-01-07T10:24:47;100800.95;;;-6.35;73.63
50484;BME280;36409;52.168;20.878;2024-01-07T10:27:17;100799.89;;;-6.39;73.45
50484;BME280;36409;52.168;20.878;2024-01-07T10:29:51;100793.83;;;-6.41;73.34
50484;BME280;36409;52.168;20.878;2024-01-07T10:32:23;100798.75;;;-6.44;73.58
50484;BME280;36409;52.168;20.878;2024-01-07T10:34:57;100801.88;;;-6.48;73.57
50484;BME280;36409;52.168;20.878;2024-01-07T10:37:31;100799.75;;;-6.55;73.09
50484;BME280;36409;52.168;20.878;2024-01-07T10:40:04;100801.31;;;-6.57;73.46
50484;BME280;36409;52.168;20.878;2024-01-07T10:42:41;100797.02;;;-6.58;73.62
50484;BME280;36409;52.168;20.878;2024-01-07T10:45:12;100796.03;;;-6.60;73.39
50484;BME280;36409;52.168;20.878;2024-01-07T10:47:47;100802.51;;;-6.65;72.98
50484;BME280;36409;52.168;20.878;2024-01-07T10:50:18;100799.85;;;-6.67;73.31
50484;BME280;36409;52.168;20.878;2024-01-07T10:52:50;100804.77;;;-6.70;72.95
50484;BME280;36409;52.168;20.878;2024-01-07T10:55:23;100798.79;;;-6.71;73.57
50484;BME280;36409;52.168;20.878;2024-01-07T10:57:58;100803.09;;;-6.70;73.15
50484;BME280;36409;52.168;20.878;2024-01-07T11:00:29;100803.09;;;-6.70;73.21
50484;BME280;36409;52.168;20.878;2024-01-07T11:03:07;100811.97;;;-6.63;73.36
50484;BME280;36409;52.168;20.878;2024-01-07T11:05:42;100802.95;;;-6.58;73.43
50484;BME280;36409;52.168;20.878;2024-01-07T11:08:19;100809.22;;;-6.53;73.45
50484;BME280;36409;52.168;20.878;2024-01-07T11:10:55;100809.91;;;-6.55;73.03
50484;BME280;36409;52.168;20.878;2024-01-07T11:13:38;100806.59;;;-6.54;73.36
50484;BME280;36409;52.168;20.878;2024-01-07T11:16:08;100802.45;;;-6.52;73.28
50484;BME280;36409;52.168;20.878;2024-01-07T11:18:40;100803.08;;;-6.56;72.77
50484;BME280;36409;52.168;20.878;2024-01-07T11:21:12;100800.53;;;-6.56;73.08
50484;BME280;36409;52.168;20.878;2024-01-07T11:23:50;100790.26;;;-6.58;73.18
50484;BME280;36409;52.168;20.878;2024-01-07T11:26:21;100792.91;;;-6.56;73.15
50484;BME280;36409;52.168;20.878;2024-01-07T11:28:53;100795.73;;;-6.52;73.25
50484;BME280;36409;52.168;20.878;2024-01-07T11:31:44;100796.99;;;-6.45;73.37
50484;BME280;36409;52.168;20.878;2024-01-07T11:34:41;100805.67;;;-6.41;73.18
50484;BME280;36409;52.168;20.878;2024-01-07T11:37:13;100791.21;;;-6.42;73.55
50484;BME280;36409;52.168;20.878;2024-01-07T11:39:45;100797.19;;;-6.42;73.11
50484;BME280;36409;52.168;20.878;2024-01-07T11:42:15;100799.03;;;-6.39;73.36
50484;BME280;36409;52.168;20.878;2024-01-07T11:44:54;100799.11;;;-6.38;73.22
50484;BME280;36409;52.168;20.878;2024-01-07T11:47:27;100798.33;;;-6.37;73.52
50484;BME280;36409;52.168;20.878;2024-01-07T11:49:57;100792.47;;;-6.36;73.27
50484;BME280;36409;52.168;20.878;2024-01-07T11:52:31;100797.55;;;-6.36;73.10
50484;BME280;36409;52.168;20.878;2024-01-07T11:55:05;100791.68;;;-6.34;72.92
50484;BME280;36409;52.168;20.878;2024-01-07T11:57:37;100796.56;;;-6.38;73.12
50484;BME280;36409;52.168;20.878;2024-01-07T12:00:09;100803.13;;;-6.41;72.75
50484;BME280;36409;52.168;20.878;2024-01-07T12:02:41;100804.50;;;-6.46;72.80
50484;BME280;36409;52.168;20.878;2024-01-07T12:05:10;100802.38;;;-6.54;72.73
50484;BME280;36409;52.168;20.878;2024-01-07T12:07:42;100801.52;;;-6.54;73.44
50484;BME280;36409;52.168;20.878;2024-01-07T12:10:10;100802.80;;;-6.61;72.64
50484;BME280;36409;52.168;20.878;2024-01-07T12:12:42;100800.91;;;-6.63;73.25
50484;BME280;36409;52.168;20.878;2024-01-07T12:15:11;100801.03;;;-6.62;73.33
50484;BME280;36409;52.168;20.878;2024-01-07T12:17:41;100799.07;;;-6.66;72.74
50484;BME280;36409;52.168;20.878;2024-01-07T12:20:14;100802.51;;;-6.65;73.29
50484;BME280;36409;52.168;20.878;2024-01-07T12:22:43;100803.17;;;-6.68;72.92
50484;BME280;36409;52.168;20.878;2024-01-07T12:25:13;100803.95;;;-6.69;72.66
50484;BME280;36409;52.168;20.878;2024-01-07T12:27:42;100808.16;;;-6.70;73.18
50484;BME280;36409;52.168;20.878;2024-01-07T12:30:13;100808.37;;;-6.67;73.25
50484;BME280;36409;52.168;20.878;2024-01-07T12:32:45;100807.67;;;-6.64;73.03
50484;BME280;36409;52.168;20.878;2024-01-07T12:35:15;100810.91;;;-6.67;72.98
50484;BME280;36409;52.168;20.878;2024-01-07T12:37:47;100817.55;;;-6.69;72.63
50484;BME280;36409;52.168;20.878;2024-01-07T12:40:17;100814.92;;;-6.70;72.59
50484;BME280;36409;52.168;20.878;2024-01-07T12:42:51;100817.55;;;-6.69;73.11
50484;BME280;36409;52.168;20.878;2024-01-07T12:45:21;100812.55;;;-6.67;73.22
50484;BME280;36409;52.168;20.878;2024-01-07T12:47:50;100816.84;;;-6.66;72.74
50484;BME280;36409;52.168;20.878;2024-01-07T12:50:19;100815.20;;;-6.65;72.72
50484;BME280;36409;52.168;20.878;2024-01-07T12:52:50;100820.29;;;-6.65;72.58
50484;BME280;36409;52.168;20.878;2024-01-07T12:55:19;100821.06;;;-6.67;72.52
50484;BME280;36409;52.168;20.878;2024-01-07T12:57:48;100822.05;;;-6.64;72.52